sensor_id;sensor_type;location;lat;lon;timestamp;temperature;humidity
9810;DHT22;4944;52.514;13.192;2023-04-25T00:00:47;9.40;99.90
9810;DHT22;4944;52.514;13.192;2023-04-25T00:03:14;9.40;99.90
9810;DHT22;4944;52.514;13.192;2023-04-25T00:05:41;9.50;99.90
9810;DHT22;4944;52.514;13.192;2023-04-25T00:08:09;9.50;99.90
9810;DHT22;4944;52.514;13.192;2023-04-25T00:10:36;9.40;99.90
9810;DHT22;4944;52.514;13.192;2023-04-25T00:13:03;9.40;99.90
9810;DHT22;4944;52.514;13.192;2023-04-25T00:15:30;9.40;99.90
9810;DHT22;4944;52.514;13.192;2023-04-25T00:17:57;9.30;99.90
9810;DHT22;4944;52.514;13.192;2023-04-25T00:20:24;9.30;99.90
9810;DHT22;4944;52.514;13.192;2023-04-25T00:22:51;9.30;99.90
9810;DHT22;4944;52.514;13.192;2023-04-25T00:25:20;9.40;99.90
9810;DHT22;4944;52.514;13.192;2023-04-25T00:27:47;9.40;99.90
9810;DHT22;4944;52.514;13.192;2023-04-25T00:30:14;9.30;99.90
9810;DHT22;4944;52.514;13.192;2023-04-25T00:32:41;9.40;99.90
9810;DHT22;4944;52.514;13.192;2023-04-25T00:35:09;9.40;99.90
9810;DHT22;4944;52.514;13.192;2023-04-25T00:37:36;9.40;99.90
9810;DHT22;4944;52.514;13.192;2023-04-25T00:40:05;9.50;99.90
9810;DHT22;4944;52.514;13.192;2023-04-25T00:42:35;9.50;99.90
9810;DHT22;4944;52.514;13.192;2023-04-25T00:45:05;9.40;99.90
9810;DHT22;4944;52.514;13.192;2023-04-25T00:47:33;9.40;99.90
9810;DHT22;4944;52.514;13.192;2023-04-25T00:50:00;9.50;99.90
9810;DHT22;4944;52.514;13.192;2023-04-25T00:52:27;9.40;99.90
9810;DHT22;4944;52.514;13.192;2023-04-25T00:54:54;9.40;99.90
9810;DHT22;4944;52.514;13.192;2023-04-25T00:57:21;9.30;99.90
9810;DHT22;4944;52.514;13.192;2023-04-25T00:59:51;9.30;99.90
9810;DHT22;4944;52.514;13.192;2023-04-25T01:02:18;9.30;99.90
9810;DHT22;4944;52.514;13.192;2023-04-25T01:04:46;9.30;99.90
9810;DHT22;4944;52.514;13.192;2023-04-25T01:07:14;9.20;99.90
9810;DHT22;4944;52.514;13.192;2023-04-25T01:09:41;9.30;99.90
9810;DHT22;4944;52.514;13.192;2023-04-25T01:12:08;9.20;99.90
9810;DHT22;4944;52.514;13.192;2023-04-25T01:14:35;9.20;99.90
9810;DHT22;4944;52.514;13.192;2023-04-25T01:17:04;9.20;99.90
9810;DHT22;4944;52.514;13.192;2023-04-25T01:19:33;9.20;99.90
9810;DHT22;4944;52.514;13.192;2023-04-25T01:22:01;9.20;99.90
9810;DHT22;4944;52.514;13.192;2023-04-25T01:24:29;9.20;99.90
9810;DHT22;4944;52.514;13.192;2023-04-25T01:26:56;9.10;99.90
9810;DHT22;4944;52.514;13.192;2023-04-25T01:29:23;9.20;99.90
9810;DHT22;4944;52.514;13.192;2023-04-25T01:31:51;9.20;99.90
9810;DHT22;4944;52.514;13.192;2023-04-25T01:34:18;9.10;99.90
9810;DHT22;4944;52.514;13.192;2023-04-25T01:36:47;9.20;99.90
9810;DHT22;4944;52.514;13.192;2023-04-25T01:39:17;9.30;99.90
9810;DHT22;4944;52.514;13.192;2023-04-25T01:41:44;9.20;99.90
9810;DHT22;4944;52.514;13.192;2023-04-25T01:44:12;9.20;99.90
9810;DHT22;4944;52.514;13.192;2023-04-25T01:46:39;9.30;99.90
9810;DHT22;4944;52.514;13.192;2023-04-25T01:49:06;9.20;99.90
9810;DHT22;4944;52.514;13.192;2023-04-25T01:51:33;9.20;99.90
9810;DHT22;4944;52.514;13.192;2023-04-25T01:54:00;9.20;99.90
9810;DHT22;4944;52.514;13.192;2023-04-25T01:56:31;9.10;99.90
9810;DHT22;4944;52.514;13.192;2023-04-25T01:58:58;9.10;99.90
9810;DHT22;4944;52.514;13.192;2023-04-25T02:01:25;9.00;99.90
9810;DHT22;4944;52.514;13.192;2023-04-25T02:03:52;9.00;99.90
9810;DHT22;4944;52.514;13.192;2023-04-25T02:06:19;9.00;99.90
9810;DHT22;4944;52.514;13.192;2023-04-25T02:08:46;9.00;99.90
9810;DHT22;4944;52.514;13.192;2023-04-25T02:11:13;9.10;99.90
9810;DHT22;4944;52.514;13.192;2023-04-25T02:13:41;9.00;99.90
9810;DHT22;4944;52.514;13.192;2023-04-25T02:16:08;9.00;99.90
9810;DHT22;4944;52.514;13.192;2023-04-25T02:18:35;9.10;99.90
9810;DHT22;4944;52.514;13.192;2023-04-25T02:21:03;9.00;99.90
9810;DHT22;4944;52.514;13.192;2023-04-25T02:23:30;9.00;99.90
9810;DHT22;4944;52.514;13.192;2023-04-25T02:25:57;8.90;99.90
9810;DHT22;4944;52.514;13.192;2023-04-25T02:28:24;8.90;99.90
9810;DHT22;4944;52.514;13.192;2023-04-25T02:30:53;8.80;99.90
9810;DHT22;4944;52.514;13.192;2023-04-25T02:33:20;8.90;99.90
9810;DHT22;4944;52.514;13.192;2023-04-25T02:35:47;8.80;99.90
9810;DHT22;4944;52.514;13.192;2023-04-25T02:38:14;8.90;99.90
9810;DHT22;4944;52.514;13.192;2023-04-25T02:40:41;8.90;99.90
9810;DHT22;4944;52.514;13.192;2023-04-25T02:43:08;8.90;99.90
9810;DHT22;4944;52.514;13.192;2023-04-25T02:45:35;8.90;99.90
9810;DHT22;4944;52.514;13.192;2023-04-25T02:48:05;8.90;99.90
9810;DHT22;4944;52.514;13.192;2023-04-25T02:50:32;8.90;99.90
9810;DHT22;4944;52.514;13.192;2023-04-25T02:52:58;8.90;99.90
9810;DHT22;4944;52.514;13.192;2023-04-25T02:55:25;8.80;99.90
9810;DHT22;4944;52.514;13.192;2023-04-25T02:57:52;8.90;99.90
9810;DHT22;4944;52.514;13.192;2023-04-25T03:00:20;8.80;99.90
9810;DHT22;4944;52.514;13.192;2023-04-25T03:02:47;8.80;99.90
9810;DHT22;4944;52.514;13.192;2023-04-25T03:05:16;8.80;99.90
9810;DHT22;4944;52.514;13.192;2023-04-25T03:07:43;8.70;99.90
9810;DHT22;4944;52.514;13.192;2023-04-25T03:10:12;8.80;99.90
9810;DHT22;4944;52.514;13.192;2023-04-25T03:12:39;8.90;99.90
9810;DHT22;4944;52.514;13.192;2023-04-25T03:15:06;8.90;99.90
9810;DHT22;4944;52.514;13.192;2023-04-25T03:17:33;8.90;99.90
9810;DHT22;4944;52.514;13.192;2023-04-25T03:20:00;8.90;99.90
9810;DHT22;4944;52.514;13.192;2023-04-25T03:22:31;8.80;99.90
9810;DHT22;4944;52.514;13.192;2023-04-25T03:24:57;8.70;99.90
9810;DHT22;4944;52.514;13.192;2023-04-25T03:27:24;8.70;99.90
9810;DHT22;4944;52.514;13.192;2023-04-25T03:29:51;8.70;99.90
9810;DHT22;4944;52.514;13.192;2023-04-25T03:32:18;8.70;99.90
9810;DHT22;4944;52.514;13.192;2023-04-25T03:34:45;8.70;99.90
9810;DHT22;4944;52.514;13.192;2023-04-25T03:37:12;8.70;99.90
9810;DHT22;4944;52.514;13.192;2023-04-25T03:39:40;8.70;99.90
9810;DHT22;4944;52.514;13.192;2023-04-25T03:42:07;8.70;99.90
9810;DHT22;4944;52.514;13.192;2023-04-25T03:44:34;8.70;99.90
9810;DHT22;4944;52.514;13.192;2023-04-25T03:47:01;8.70;99.90
9810;DHT22;4944;52.514;13.192;2023-04-25T03:49:28;8.70;99.90
9810;DHT22;4944;52.514;13.192;2023-04-25T03:51:55;8.70;99.90
9810;DHT22;4944;52.514;13.192;2023-04-25T03:54:21;8.80;99.90
9810;DHT22;4944;52.514;13.192;2023-04-25T03:56:50;8.60;99.90
9810;DHT22;4944;52.514;13.192;2023-04-25T03:59:17;8.60;99.90
9810;DHT22;4944;52.514;13.192;2023-04-25T04:01:43;8.70;99.90
9810;DHT22;4944;52.514;13.192;2023-04-25T04:04:10;8.60;99.90
9810;DHT22;4944;52.514;13.192;2023-04-25T04:06:37;8.60;99.90
9810;DHT22;4944;52.514;13.192;2023-04-25T04:09:04;8.60;99.90
9810;DHT22;4944;52.514;13.192;2023-04-25T04:11:35;8.60;99.90
9810;DHT22;4944;52.514;13.192;2023-04-25T04:14:05;8.60;99.90
9810;DHT22;4944;52.514;13.192;2023-04-25T04:16:32;8.70;99.90
9810;DHT22;4944;52.514;13.192;2023-04-25T04:18:59;8.70;99.90
9810;DHT22;4944;52.514;13.192;2023-04-25T04:21:26;8.70;99.90
9810;DHT22;4944;52.514;13.192;2023-04-25T04:23:53;8.70;99.90
9810;DHT22;4944;52.514;13.192;2023-04-25T04:26:20;8.80;99.90
9810;DHT22;4944;52.514;13.192;2023-04-25T04:28:49;8.80;99.90
9810;DHT22;4944;52.514;13.192;2023-04-25T04:31:17;8.80;99.90
9810;DHT22;4944;52.514;13.192;2023-04-25T04:33:45;8.80;99.90
9810;DHT22;4944;52.514;13.192;2023-04-25T04:36:12;8.80;99.90
9810;DHT22;4944;52.514;13.192;2023-04-25T04:38:39;8.80;99.90
9810;DHT22;4944;52.514;13.192;2023-04-25T04:41:08;8.80;99.90
9810;DHT22;4944;52.514;13.192;2023-04-25T04:43:34;8.80;99.90
9810;DHT22;4944;52.514;13.192;2023-04-25T04:46:02;8.80;99.90
9810;DHT22;4944;52.514;13.192;2023-04-25T04:48:32;8.70;99.90
9810;DHT22;4944;52.514;13.192;2023-04-25T04:50:59;8.70;99.90
9810;DHT22;4944;52.514;13.192;2023-04-25T04:53:26;8.80;99.90
9810;DHT22;4944;52.514;13.192;2023-04-25T04:55:54;8.90;99.90
9810;DHT22;4944;52.514;13.192;2023-04-25T04:58:21;8.90;99.90
9810;DHT22;4944;52.514;13.192;2023-04-25T05:00:48;8.80;99.90
9810;DHT22;4944;52.514;13.192;2023-04-25T05:03:15;8.80;99.90
9810;DHT22;4944;52.514;13.192;2023-04-25T05:05:43;8.80;99.90
9810;DHT22;4944;52.514;13.192;2023-04-25T05:08:11;8.80;99.90
9810;DHT22;4944;52.514;13.192;2023-04-25T05:10:38;8.80;99.90
9810;DHT22;4944;52.514;13.192;2023-04-25T05:13:05;8.90;99.90
9810;DHT22;4944;52.514;13.192;2023-04-25T05:15:31;8.90;99.90
9810;DHT22;4944;52.514;13.192;2023-04-25T05:17:58;8.90;99.90
9810;DHT22;4944;52.514;13.192;2023-04-25T05:20:25;8.90;99.90
9810;DHT22;4944;52.514;13.192;2023-04-25T05:22:54;8.80;99.90
9810;DHT22;4944;52.514;13.192;2023-04-25T05:25:20;8.90;99.90
9810;DHT22;4944;52.514;13.192;2023-04-25T05:27:47;8.90;99.90
9810;DHT22;4944;52.514;13.192;2023-04-25T05:30:14;8.80;99.90
9810;DHT22;4944;52.514;13.192;2023-04-25T05:32:41;8.80;99.90
9810;DHT22;4944;52.514;13.192;2023-04-25T05:35:08;8.90;99.90
9810;DHT22;4944;52.514;13.192;2023-04-25T05:37:35;8.90;99.90
9810;DHT22;4944;52.514;13.192;2023-04-25T05:40:05;8.80;99.90
9810;DHT22;4944;52.514;13.192;2023-04-25T05:42:32;8.90;99.90
9810;DHT22;4944;52.514;13.192;2023-04-25T05:44:59;8.90;99.90
9810;DHT22;4944;52.514;13.192;2023-04-25T05:47:26;8.90;99.90
9810;DHT22;4944;52.514;13.192;2023-04-25T05:49:53;8.90;99.90
9810;DHT22;4944;52.514;13.192;2023-04-25T05:52:20;8.90;99.90
9810;DHT22;4944;52.514;13.192;2023-04-25T05:54:48;8.80;99.90
9810;DHT22;4944;52.514;13.192;2023-04-25T05:57:24;8.80;99.90
9810;DHT22;4944;52.514;13.192;2023-04-25T05:59:51;8.90;99.90
9810;DHT22;4944;52.514;13.192;2023-04-25T06:02:19;8.90;99.90
9810;DHT22;4944;52.514;13.192;2023-04-25T06:04:46;8.80;99.90
9810;DHT22;4944;52.514;13.192;2023-04-25T06:07:13;8.90;99.90
9810;DHT22;4944;52.514;13.192;2023-04-25T06:09:40;8.90;99.90
9810;DHT22;4944;52.514;13.192;2023-04-25T06:12:07;8.90;99.90
9810;DHT22;4944;52.514;13.192;2023-04-25T06:14:36;8.90;99.90
9810;DHT22;4944;52.514;13.192;2023-04-25T06:17:03;8.80;99.90
9810;DHT22;4944;52.514;13.192;2023-04-25T06:19:32;8.90;99.90
9810;DHT22;4944;52.514;13.192;2023-04-25T06:21:59;8.80;99.90
9810;DHT22;4944;52.514;13.192;2023-04-25T06:24:26;8.80;99.90
9810;DHT22;4944;52.514;13.192;2023-04-25T06:26:53;8.80;99.90
9810;DHT22;4944;52.514;13.192;2023-04-25T06:29:20;8.90;99.90
9810;DHT22;4944;52.514;13.192;2023-04-25T06:31:48;8.90;99.90
9810;DHT22;4944;52.514;13.192;2023-04-25T06:34:15;9.00;99.90
9810;DHT22;4944;52.514;13.192;2023-04-25T06:36:46;9.00;99.90
9810;DHT22;4944;52.514;13.192;2023-04-25T06:39:13;9.00;99.90
9810;DHT22;4944;52.514;13.192;2023-04-25T06:41:40;9.00;99.90
9810;DHT22;4944;52.514;13.192;2023-04-25T06:44:07;8.90;99.90
9810;DHT22;4944;52.514;13.192;2023-04-25T06:46:34;8.80;99.90
9810;DHT22;4944;52.514;13.192;2023-04-25T06:49:03;8.80;99.90
9810;DHT22;4944;52.514;13.192;2023-04-25T06:51:30;8.80;99.90
9810;DHT22;4944;52.514;13.192;2023-04-25T06:53:59;8.90;99.90
9810;DHT22;4944;52.514;13.192;2023-04-25T06:56:26;8.80;99.90
9810;DHT22;4944;52.514;13.192;2023-04-25T06:58:55;8.80;99.90
9810;DHT22;4944;52.514;13.192;2023-04-25T07:01:22;8.70;99.90
9810;DHT22;4944;52.514;13.192;2023-04-25T07:03:49;8.60;99.90
9810;DHT22;4944;52.514;13.192;2023-04-25T07:06:17;8.60;99.90
9810;DHT22;4944;52.514;13.192;2023-04-25T07:08:44;8.60;99.90
9810;DHT22;4944;52.514;13.192;2023-04-25T07:11:11;8.50;99.90
9810;DHT22;4944;52.514;13.192;2023-04-25T07:13:38;8.50;99.90
9810;DHT22;4944;52.514;13.192;2023-04-25T07:16:05;8.40;99.90
9810;DHT22;4944;52.514;13.192;2023-04-25T07:18:32;8.40;99.90
9810;DHT22;4944;52.514;13.192;2023-04-25T07:20:59;8.50;99.90
9810;DHT22;4944;52.514;13.192;2023-04-25T07:23:27;8.60;99.90
9810;DHT22;4944;52.514;13.192;2023-04-25T07:25:54;8.70;99.90
9810;DHT22;4944;52.514;13.192;2023-04-25T07:28:21;8.80;99.90
9810;DHT22;4944;52.514;13.192;2023-04-25T07:30:48;8.80;99.90
9810;DHT22;4944;52.514;13.192;2023-04-25T07:33:15;8.80;99.90
9810;DHT22;4944;52.514;13.192;2023-04-25T07:35:42;8.80;99.90
9810;DHT22;4944;52.514;13.192;2023-04-25T07:38:08;8.80;99.90
9810;DHT22;4944;52.514;13.192;2023-04-25T07:40:37;8.90;99.90
9810;DHT22;4944;52.514;13.192;2023-04-25T07:43:04;8.90;99.90
9810;DHT22;4944;52.514;13.192;2023-04-25T07:45:30;8.90;99.90
9810;DHT22;4944;52.514;13.192;2023-04-25T07:47:57;8.90;99.90
9810;DHT22;4944;52.514;13.192;2023-04-25T07:50:24;8.90;99.90
9810;DHT22;4944;52.514;13.192;2023-04-25T07:52:51;9.00;99.90
9810;DHT22;4944;52.514;13.192;2023-04-25T07:55:18;9.00;99.90
9810;DHT22;4944;52.514;13.192;2023-04-25T07:57:46;9.10;99.90
9810;DHT22;4944;52.514;13.192;2023-04-25T08:00:14;9.10;99.90
9810;DHT22;4944;52.514;13.192;2023-04-25T08:02:41;9.10;99.90
9810;DHT22;4944;52.514;13.192;2023-04-25T08:05:08;9.20;99.90
9810;DHT22;4944;52.514;13.192;2023-04-25T08:07:39;9.20;99.90
9810;DHT22;4944;52.514;13.192;2023-04-25T08:10:07;9.20;99.90
9810;DHT22;4944;52.514;13.192;2023-04-25T08:12:34;9.30;99.90
9810;DHT22;4944;52.514;13.192;2023-04-25T08:15:04;9.30;99.90
9810;DHT22;4944;52.514;13.192;2023-04-25T08:17:32;9.30;99.90
9810;DHT22;4944;52.514;13.192;2023-04-25T08:19:58;9.40;99.90
9810;DHT22;4944;52.514;13.192;2023-04-25T08:22:25;9.50;99.90
9810;DHT22;4944;52.514;13.192;2023-04-25T08:24:52;9.50;99.90
9810;DHT22;4944;52.514;13.192;2023-04-25T08:27:19;9.50;99.90
9810;DHT22;4944;52.514;13.192;2023-04-25T08:29:47;9.50;99.90
9810;DHT22;4944;52.514;13.192;2023-04-25T08:32:15;9.40;99.90
9810;DHT22;4944;52.514;13.192;2023-04-25T08:34:42;9.50;99.90
9810;DHT22;4944;52.514;13.192;2023-04-25T08:37:10;9.50;99.90
9810;DHT22;4944;52.514;13.192;2023-04-25T08:39:37;9.50;99.90
9810;DHT22;4944;52.514;13.192;2023-04-25T08:42:06;9.40;99.90
9810;DHT22;4944;52.514;13.192;2023-04-25T08:44:34;9.40;99.90
9810;DHT22;4944;52.514;13.192;2023-04-25T08:47:03;9.50;99.90
9810;DHT22;4944;52.514;13.192;2023-04-25T08:49:32;9.60;99.90
9810;DHT22;4944;52.514;13.192;2023-04-25T08:52:00;9.80;99.90
9810;DHT22;4944;52.514;13.192;2023-04-25T08:54:28;10.00;99.90
9810;DHT22;4944;52.514;13.192;2023-04-25T08:56:57;10.10;99.90
9810;DHT22;4944;52.514;13.192;2023-04-25T08:59:24;9.90;99.90
9810;DHT22;4944;52.514;13.192;2023-04-25T09:01:51;10.00;99.90
9810;DHT22;4944;52.514;13.192;2023-04-25T09:04:18;10.10;99.90
9810;DHT22;4944;52.514;13.192;2023-04-25T09:06:47;10.20;99.90
9810;DHT22;4944;52.514;13.192;2023-04-25T09:09:14;10.20;99.90
9810;DHT22;4944;52.514;13.192;2023-04-25T09:11:41;10.40;99.90
9810;DHT22;4944;52.514;13.192;2023-04-25T09:14:15;10.30;99.90
9810;DHT22;4944;52.514;13.192;2023-04-25T09:16:58;10.50;99.90
9810;DHT22;4944;52.514;13.192;2023-04-25T09:19:27;10.40;99.90
9810;DHT22;4944;52.514;13.192;2023-04-25T09:21:57;10.40;99.90
9810;DHT22;4944;52.514;13.192;2023-04-25T09:24:35;10.40;99.90
9810;DHT22;4944;52.514;13.192;2023-04-25T09:27:06;10.40;99.90
9810;DHT22;4944;52.514;13.192;2023-04-25T09:29:34;10.40;99.90
9810;DHT22;4944;52.514;13.192;2023-04-25T09:32:16;10.30;99.90
9810;DHT22;4944;52.514;13.192;2023-04-25T09:34:46;10.40;99.90
9810;DHT22;4944;52.514;13.192;2023-04-25T09:37:19;10.40;99.90
9810;DHT22;4944;52.514;13.192;2023-04-25T09:39:47;10.50;99.90
9810;DHT22;4944;52.514;13.192;2023-04-25T09:42:15;10.40;99.90
9810;DHT22;4944;52.514;13.192;2023-04-25T09:44:43;10.50;99.90
9810;DHT22;4944;52.514;13.192;2023-04-25T09:47:11;10.50;99.90
9810;DHT22;4944;52.514;13.192;2023-04-25T09:49:40;10.60;99.90
9810;DHT22;4944;52.514;13.192;2023-04-25T09:52:09;10.60;99.90
9810;DHT22;4944;52.514;13.192;2023-04-25T09:54:41;10.70;99.90
9810;DHT22;4944;52.514;13.192;2023-04-25T09:57:11;11.00;99.90
9810;DHT22;4944;52.514;13.192;2023-04-25T09:59:39;11.10;99.90
9810;DHT22;4944;52.514;13.192;2023-04-25T10:02:09;11.00;99.90
9810;DHT22;4944;52.514;13.192;2023-04-25T10:04:37;10.70;99.90
9810;DHT22;4944;52.514;13.192;2023-04-25T10:07:06;10.70;99.90
9810;DHT22;4944;52.514;13.192;2023-04-25T10:09:33;10.80;99.90
9810;DHT22;4944;52.514;13.192;2023-04-25T10:12:04;10.50;99.90
9810;DHT22;4944;52.514;13.192;2023-04-25T10:14:31;10.50;99.90
9810;DHT22;4944;52.514;13.192;2023-04-25T10:16:59;10.50;99.90
9810;DHT22;4944;52.514;13.192;2023-04-25T10:19:27;10.50;99.90
9810;DHT22;4944;52.514;13.192;2023-04-25T10:22:00;10.60;99.90
9810;DHT22;4944;52.514;13.192;2023-04-25T10:24:28;10.60;99.90
9810;DHT22;4944;52.514;13.192;2023-04-25T10:26:56;10.70;99.90
9810;DHT22;4944;52.514;13.192;2023-04-25T10:29:26;10.80;99.90
9810;DHT22;4944;52.514;13.192;2023-04-25T10:31:53;10.80;99.90
9810;DHT22;4944;52.514;13.192;2023-04-25T10:34:24;10.70;99.90
9810;DHT22;4944;52.514;13.192;2023-04-25T10:37:03;10.60;99.90
9810;DHT22;4944;52.514;13.192;2023-04-25T10:39:32;10.60;99.90
9810;DHT22;4944;52.514;13.192;2023-04-25T10:42:01;10.60;99.90
9810;DHT22;4944;52.514;13.192;2023-04-25T10:44:30;10.60;99.90
9810;DHT22;4944;52.514;13.192;2023-04-25T10:46:58;10.60;99.90
9810;DHT22;4944;52.514;13.192;2023-04-25T10:49:31;10.50;99.90
9810;DHT22;4944;52.514;13.192;2023-04-25T10:52:18;10.50;99.90
9810;DHT22;4944;52.514;13.192;2023-04-25T10:54:52;10.60;99.90
9810;DHT22;4944;52.514;13.192;2023-04-25T10:57:30;10.60;99.90
9810;DHT22;4944;52.514;13.192;2023-04-25T11:00:00;10.50;99.90
9810;DHT22;4944;52.514;13.192;2023-04-25T11:02:29;10.40;99.90
9810;DHT22;4944;52.514;13.192;2023-04-25T11:04:56;10.30;99.90
9810;DHT22;4944;52.514;13.192;2023-04-25T11:07:29;10.20;99.90
9810;DHT22;4944;52.514;13.192;2023-04-25T11:10:01;10.00;99.90
9810;DHT22;4944;52.514;13.192;2023-04-25T11:12:30;9.90;99.90
9810;DHT22;4944;52.514;13.192;2023-04-25T11:15:03;9.90;99.90
9810;DHT22;4944;52.514;13.192;2023-04-25T11:17:30;9.90;99.90
9810;DHT22;4944;52.514;13.192;2023-04-25T11:19:57;9.90;99.90
9810;DHT22;4944;52.514;13.192;2023-04-25T11:22:24;10.00;99.90
9810;DHT22;4944;52.514;13.192;2023-04-25T11:24:52;9.90;99.90
9810;DHT22;4944;52.514;13.192;2023-04-25T11:27:20;10.00;99.90
9810;DHT22;4944;52.514;13.192;2023-04-25T11:29:50;10.00;99.90
9810;DHT22;4944;52.514;13.192;2023-04-25T11:32:18;10.00;99.90
9810;DHT22;4944;52.514;13.192;2023-04-25T11:34:46;10.10;99.90
9810;DHT22;4944;52.514;13.192;2023-04-25T11:37:14;10.30;99.90
9810;DHT22;4944;52.514;13.192;2023-04-25T11:39:44;10.30;99.40
9810;DHT22;4944;52.514;13.192;2023-04-25T11:42:12;10.30;99.90
9810;DHT22;4944;52.514;13.192;2023-04-25T11:44:39;10.30;99.90
9810;DHT22;4944;52.514;13.192;2023-04-25T11:47:07;10.10;99.90
9810;DHT22;4944;52.514;13.192;2023-04-25T11:49:35;10.20;99.90
9810;DHT22;4944;52.514;13.192;2023-04-25T11:52:02;10.30;99.90
9810;DHT22;4944;52.514;13.192;2023-04-25T11:54:30;10.30;99.90
9810;DHT22;4944;52.514;13.192;2023-04-25T11:56:57;10.30;99.90
9810;DHT22;4944;52.514;13.192;2023-04-25T11:59:24;10.40;99.90
9810;DHT22;4944;52.514;13.192;2023-04-25T12:01:52;10.50;99.90
9810;DHT22;4944;52.514;13.192;2023-04-25T12:04:21;10.60;99.90
9810;DHT22;4944;52.514;13.192;2023-04-25T12:06:51;10.40;99.60
9810;DHT22;4944;52.514;13.192;2023-04-25T12:09:19;10.40;99.60
9810;DHT22;4944;52.514;13.192;2023-04-25T12:11:52;10.50;99.80
9810;DHT22;4944;52.514;13.192;2023-04-25T12:14:23;10.50;99.80
9810;DHT22;4944;52.514;13.192;2023-04-25T12:16:51;10.50;99.90
9810;DHT22;4944;52.514;13.192;2023-04-25T12:19:20;10.60;99.70
9810;DHT22;4944;52.514;13.192;2023-04-25T12:21:48;10.60;99.40
9810;DHT22;4944;52.514;13.192;2023-04-25T12:24:18;10.50;99.50
9810;DHT22;4944;52.514;13.192;2023-04-25T12:26:50;10.60;99.90
9810;DHT22;4944;52.514;13.192;2023-04-25T12:29:19;10.60;99.90
9810;DHT22;4944;52.514;13.192;2023-04-25T12:31:47;10.60;99.90
9810;DHT22;4944;52.514;13.192;2023-04-25T12:34:14;10.60;99.90
9810;DHT22;4944;52.514;13.192;2023-04-25T12:36:41;10.50;99.50
9810;DHT22;4944;52.514;13.192;2023-04-25T12:39:14;10.40;99.90
9810;DHT22;4944;52.514;13.192;2023-04-25T12:41:41;10.40;99.60
9810;DHT22;4944;52.514;13.192;2023-04-25T12:44:08;10.20;99.90
9810;DHT22;4944;52.514;13.192;2023-04-25T12:46:35;10.20;99.90
9810;DHT22;4944;52.514;13.192;2023-04-25T12:49:03;10.10;99.90
9810;DHT22;4944;52.514;13.192;2023-04-25T12:51:31;10.10;99.90
9810;DHT22;4944;52.514;13.192;2023-04-25T12:53:58;10.10;99.90
9810;DHT22;4944;52.514;13.192;2023-04-25T12:56:27;10.30;99.90
9810;DHT22;4944;52.514;13.192;2023-04-25T12:58:54;10.30;99.90
9810;DHT22;4944;52.514;13.192;2023-04-25T13:01:21;10.30;99.90
9810;DHT22;4944;52.514;13.192;2023-04-25T13:03:49;10.50;99.90
9810;DHT22;4944;52.514;13.192;2023-04-25T13:06:17;10.80;99.90
9810;DHT22;4944;52.514;13.192;2023-04-25T13:08:44;10.90;99.00
9810;DHT22;4944;52.514;13.192;2023-04-25T13:11:11;11.10;99.00
9810;DHT22;4944;52.514;13.192;2023-04-25T13:13:41;11.00;98.90
9810;DHT22;4944;52.514;13.192;2023-04-25T13:16:08;10.80;99.40
9810;DHT22;4944;52.514;13.192;2023-04-25T13:18:36;10.70;99.60
9810;DHT22;4944;52.514;13.192;2023-04-25T13:21:03;10.70;99.90
9810;DHT22;4944;52.514;13.192;2023-04-25T13:23:30;10.60;99.90
9810;DHT22;4944;52.514;13.192;2023-04-25T13:25:57;10.60;99.90
9810;DHT22;4944;52.514;13.192;2023-04-25T13:28:26;10.50;99.90
9810;DHT22;4944;52.514;13.192;2023-04-25T13:30:54;10.40;99.90
9810;DHT22;4944;52.514;13.192;2023-04-25T13:33:21;10.40;99.90
9810;DHT22;4944;52.514;13.192;2023-04-25T13:35:49;10.30;99.90
9810;DHT22;4944;52.514;13.192;2023-04-25T13:38:20;10.50;99.90
9810;DHT22;4944;52.514;13.192;2023-04-25T13:40:48;10.60;99.90
9810;DHT22;4944;52.514;13.192;2023-04-25T13:43:15;10.70;99.90
9810;DHT22;4944;52.514;13.192;2023-04-25T13:45:43;10.90;99.90
9810;DHT22;4944;52.514;13.192;2023-04-25T13:48:12;10.80;99.90
9810;DHT22;4944;52.514;13.192;2023-04-25T13:50:39;10.70;99.90
9810;DHT22;4944;52.514;13.192;2023-04-25T13:53:07;10.60;99.90
9810;DHT22;4944;52.514;13.192;2023-04-25T13:55:36;10.50;99.90
9810;DHT22;4944;52.514;13.192;2023-04-25T13:58:04;10.40;99.90
9810;DHT22;4944;52.514;13.192;2023-04-25T14:00:34;10.40;99.90
9810;DHT22;4944;52.514;13.192;2023-04-25T14:03:03;10.30;99.90
9810;DHT22;4944;52.514;13.192;2023-04-25T14:05:34;10.30;99.90
9810;DHT22;4944;52.514;13.192;2023-04-25T14:08:05;10.20;99.90
9810;DHT22;4944;52.514;13.192;2023-04-25T14:10:33;10.00;99.90
9810;DHT22;4944;52.514;13.192;2023-04-25T14:13:00;9.90;99.90
9810;DHT22;4944;52.514;13.192;2023-04-25T14:15:29;9.90;99.90
9810;DHT22;4944;52.514;13.192;2023-04-25T14:17:56;9.90;99.90
9810;DHT22;4944;52.514;13.192;2023-04-25T14:20:22;9.80;99.90
9810;DHT22;4944;52.514;13.192;2023-04-25T14:22:51;9.70;99.90
9810;DHT22;4944;52.514;13.192;2023-04-25T14:25:20;9.80;99.90
9810;DHT22;4944;52.514;13.192;2023-04-25T14:27:47;9.80;99.90
9810;DHT22;4944;52.514;13.192;2023-04-25T14:30:15;9.80;99.90
9810;DHT22;4944;52.514;13.192;2023-04-25T14:32:42;9.90;99.90
9810;DHT22;4944;52.514;13.192;2023-04-25T14:35:10;10.10;99.90
9810;DHT22;4944;52.514;13.192;2023-04-25T14:37:37;10.30;99.90
9810;DHT22;4944;52.514;13.192;2023-04-25T14:40:07;10.30;99.90
9810;DHT22;4944;52.514;13.192;2023-04-25T14:42:36;10.30;99.90
9810;DHT22;4944;52.514;13.192;2023-04-25T14:45:03;10.30;99.90
9810;DHT22;4944;52.514;13.192;2023-04-25T14:47:30;10.20;99.90
9810;DHT22;4944;52.514;13.192;2023-04-25T14:49:57;10.10;99.90
9810;DHT22;4944;52.514;13.192;2023-04-25T14:52:24;10.10;99.90
9810;DHT22;4944;52.514;13.192;2023-04-25T14:54:51;10.10;99.90
9810;DHT22;4944;52.514;13.192;2023-04-25T14:57:19;10.10;99.90
9810;DHT22;4944;52.514;13.192;2023-04-25T14:59:46;10.10;99.90
9810;DHT22;4944;52.514;13.192;2023-04-25T15:02:13;10.10;99.90
9810;DHT22;4944;52.514;13.192;2023-04-25T15:04:40;10.00;99.90
9810;DHT22;4944;52.514;13.192;2023-04-25T15:07:07;10.00;99.90
9810;DHT22;4944;52.514;13.192;2023-04-25T15:09:34;10.10;99.90
9810;DHT22;4944;52.514;13.192;2023-04-25T15:12:02;10.00;99.90
9810;DHT22;4944;52.514;13.192;2023-04-25T15:14:30;10.00;99.90
9810;DHT22;4944;52.514;13.192;2023-04-25T15:16:59;10.00;99.90
9810;DHT22;4944;52.514;13.192;2023-04-25T15:19:26;10.10;99.90
9810;DHT22;4944;52.514;13.192;2023-04-25T15:21:53;10.40;99.90
9810;DHT22;4944;52.514;13.192;2023-04-25T15:24:20;10.40;99.90
9810;DHT22;4944;52.514;13.192;2023-04-25T15:26:47;10.50;99.90
9810;DHT22;4944;52.514;13.192;2023-04-25T15:29:14;10.50;99.90
9810;DHT22;4944;52.514;13.192;2023-04-25T15:31:43;10.40;99.90
9810;DHT22;4944;52.514;13.192;2023-04-25T15:34:13;10.40;99.90
9810;DHT22;4944;52.514;13.192;2023-04-25T15:36:39;10.30;99.90
9810;DHT22;4944;52.514;13.192;2023-04-25T15:39:06;10.20;99.90
9810;DHT22;4944;52.514;13.192;2023-04-25T15:41:33;10.20;99.90
9810;DHT22;4944;52.514;13.192;2023-04-25T15:44:00;10.20;99.90
9810;DHT22;4944;52.514;13.192;2023-04-25T15:46:27;10.20;99.90
9810;DHT22;4944;52.514;13.192;2023-04-25T15:48:57;10.10;99.90
9810;DHT22;4944;52.514;13.192;2023-04-25T15:51:24;10.10;99.90
9810;DHT22;4944;52.514;13.192;2023-04-25T15:53:51;10.00;99.90
9810;DHT22;4944;52.514;13.192;2023-04-25T15:56:18;10.00;99.90
9810;DHT22;4944;52.514;13.192;2023-04-25T15:58:45;9.90;99.90